This is the latest recevied weather packets stored in our database for station/object IZ1BLA-10. If no packets are shown the sender has not sent any weather packets the latest 10 day(s).
| Time | Temp. | Humidity | Pressure | Rain* | Wind** | Luminosity | Snow |
|---|---|---|---|---|---|---|---|
| 1777796350 | 17.78° C | 46% | 1018.5 hPa | - | - | - | - |
| 1777795750 | 17.78° C | 48% | 1018.5 hPa | - | - | - | - |
| 1777795149 | 16.11° C | 54% | 1018.9 hPa | - | - | - | - |
| 1777794550 | 15.56° C | 56% | 1019.1 hPa | - | - | - | - |
| 1777793950 | 15.56° C | 56% | 1019.1 hPa | - | - | - | - |
| 1777793350 | 13.89° C | 67% | 1019.8 hPa | - | - | - | - |
| 1777792751 | 14.44° C | 66% | 1019.5 hPa | - | - | - | - |
| 1777792149 | 13.33° C | 68% | 1019.9 hPa | - | - | - | - |
| 1777791549 | 12.22° C | 69% | 1020.2 hPa | - | - | - | - |
| 1777790950 | 11.67° C | 70% | 1020.3 hPa | - | - | - | - |
| 1777790350 | 11.67° C | 69% | 1020.2 hPa | - | - | - | - |
| 1777789750 | 11.67° C | 65% | 1020.3 hPa | - | - | - | - |
| 1777789149 | 13.33° C | 57% | 1019.8 hPa | - | - | - | - |
| 1777788549 | 12.22° C | 60% | 1020.1 hPa | - | - | - | - |
| 1777787950 | 12.22° C | 62% | 1020.2 hPa | - | - | - | - |
| 1777787350 | 11.11° C | 62% | 1020.6 hPa | - | - | - | - |
| 1777786749 | 11.11° C | 63% | 1020.7 hPa | - | - | - | - |
| 1777786149 | 10.56° C | 65% | 1020.8 hPa | - | - | - | - |
| 1777785549 | 11.67° C | 63% | 1020.4 hPa | - | - | - | - |
| 1777784949 | 10.56° C | 69% | 1020.8 hPa | - | - | - | - |
| 1777784350 | 10° C | 62% | 1020.9 hPa | - | - | - | - |
| 1777783149 | 10° C | 63% | 1020.6 hPa | - | - | - | - |
| 1777782550 | 9.44° C | 65% | 1020.9 hPa | - | - | - | - |
| 1777781949 | 9.44° C | 70% | 1020.9 hPa | - | - | - | - |
| 1777781349 | 9.44° C | 66% | 1021 hPa | - | - | - | - |
* Rain since midnight (hover to see other rain measurements)
** Current wind speed in m/s (hover to see current wind gust speed)